Aurora — ZCDW9 — position and weather

sailwx.info

Track history (hours):
 
Tides and Currents Weather Stations Pressure Air Temp Water Temp Dewpoint Dewpoint Depression Visibility Wind Speed Wind Dir Waves Ship Positions

Aurora (Bermuda)

Last reported at 2017-Jul-22 11:52 UTC. Time now 2017-Jul-22 12:44 UTC.
Position N 54°14' E 003°19'.

Length 271 m; draft 8.3 m.

Type: Ship. MMSI: 310555970.

Date/timePositionNaut miles runAvg speedWind from/ knotsBaromVisibWave heightAir tempDewpointWater temp
2017-Jul-22 11:52N 54°14' E 003°19'3520.5
2017-Jul-22 10:10N 54°48' E 003°25'34820.3
2017-Jul-21 17:00N 60°35' E 004°22'1020.3
2017-Jul-21 16:30N 60°43' E 004°35'712.9
2017-Jul-21 15:59N 60°42' E 004°48'918.2
2017-Jul-21 15:30N 60°34' E 004°55'1019.4
2017-Jul-21 15:00N 60°25' E 005°04'511.1
2017-Jul-21 14:30N 60°24' E 005°14'2 4.1
2017-Jul-21 13:57N 60°24' E 005°19'0 0.0
2017-Jul-21 13:27N 60°24' E 005°19'0 0.0
2017-Jul-21 12:57N 60°24' E 005°19'0 0.0
2017-Jul-21 12:27N 60°24' E 005°19'0 0.0
2017-Jul-21 11:57N 60°24' E 005°19'0 0.0
2017-Jul-21 11:27N 60°24' E 005°19'0 0.0
2017-Jul-21 10:57N 60°24' E 005°19'0 0.0
2017-Jul-21 10:27N 60°24' E 005°19'0 0.0
2017-Jul-21 09:57N 60°24' E 005°19'0 0.0
2017-Jul-21 09:27N 60°24' E 005°19'0 0.0
2017-Jul-21 08:57N 60°24' E 005°19'0 0.0
2017-Jul-21 08:27N 60°24' E 005°19'0 0.0
2017-Jul-21 07:57N 60°24' E 005°19'0 0.0
2017-Jul-21 07:27N 60°24' E 005°19'0 0.0
2017-Jul-21 06:57N 60°24' E 005°19'0 0.0
2017-Jul-21 06:27N 60°24' E 005°19'0 0.0
2017-Jul-21 05:57N 60°24' E 005°19'0 0.0
2017-Jul-21 05:30N 60°24' E 005°19'2 4.4
2017-Jul-21 05:00N 60°24' E 005°15'4 8.2
2017-Jul-21 04:30N 60°24' E 005°06'714.8
2017-Jul-21 04:00N 60°31' E 004°58'917.1
2017-Jul-21 03:30N 60°38' E 004°51'816.5
2017-Jul-21 03:00N 60°45' E 004°40'816.0
2017-Jul-21 02:30N 60°49' E 004°27'816.3
2017-Jul-21 02:00N 60°57' E 004°21'816.0
2017-Jul-21 01:30N 61°05' E 004°18'816.2
2017-Jul-21 01:00N 61°13' E 004°18'816.4
2017-Jul-21 00:30N 61°21' E 004°19'2916.0
2017-Jul-20 22:41N 61°50' E 004°24'317.1
2017-Jul-20 22:30N 61°53' E 004°27'1018.9
2017-Jul-20 22:00N 62°02' E 004°37'1019.9
2017-Jul-20 21:30N 62°10' E 004°46'1020.0
2017-Jul-20 21:00N 62°18' E 004°58'1020.1
2017-Jul-20 20:30N 62°27' E 005°10'1019.8
2017-Jul-20 20:00N 62°34' E 005°24'1019.8
2017-Jul-20 19:30N 62°40' E 005°41'1019.9
2017-Jul-20 19:00N 62°47' E 005°59'1019.7
2017-Jul-20 18:30N 62°53' E 006°16'1019.5
2017-Jul-20 18:00N 62°57' E 006°35'817.3
2017-Jul-20 17:30N 62°54' E 006°52'713.5
2017-Jul-20 17:00N 62°48' E 006°57'713.4
2017-Jul-20 16:30N 62°42' E 007°03'916.8
2017-Jul-20 16:00N 62°38' E 007°20'915.7
2017-Jul-20 15:27N 62°33' E 007°36'3 6.4
2017-Jul-20 15:00N 62°34' E 007°42'0 0.0
2017-Jul-20 05:47N 62°34' E 007°42'0 1.1
2017-Jul-20 05:28N 62°34' E 007°41'6 7.7
2017-Jul-20 04:39N 62°34' E 007°27'211.9
2017-Jul-20 04:27N 62°36' E 007°24'715.0
2017-Jul-20 04:00N 62°39' E 007°12'715.0
2017-Jul-20 03:30N 62°43' E 006°58'714.9
2017-Jul-20 03:00N 62°51' E 006°59'612.9
2017-Jul-20 02:31N 62°55' E 006°49'715.0
2017-Jul-20 02:01N 62°57' E 006°33'815.2
2017-Jul-20 01:30N 62°55' E 006°17'815.2
2017-Jul-20 01:00N 62°53' E 006°01'815.3
2017-Jul-20 00:31N 62°51' E 005°45'5314.4
2017-Jul-19 20:48N 62°11' E 004°28'414.7
2017-Jul-19 20:29N 62°07' E 004°34'815.5
2017-Jul-19 20:00N 62°02' E 004°46'816.8
2017-Jul-19 19:30N 61°56' E 004°59'815.9
2017-Jul-19 19:00N 61°54' E 005°15'816.2
2017-Jul-19 18:29N 61°55' E 005°33'816.1
2017-Jul-19 18:00N 61°51' E 005°47'1 0.1
2017-Jul-19 04:10N 61°51' E 005°50'214.9
2017-Jul-19 04:00N 61°52' E 005°45'815.9
2017-Jul-19 03:30N 61°55' E 005°29'816.0
2017-Jul-19 03:00N 61°54' E 005°13'713.9
2017-Jul-19 02:30N 61°57' E 004°59'714.6
2017-Jul-19 02:00N 61°57' E 004°43'816.4
2017-Jul-19 01:30N 61°51' E 004°32'816.8
2017-Jul-19 01:00N 61°43' E 004°25'6230.9
2017-Jul-18 23:00N 60°42' E 004°06'6713.7 320 / 91020.310.8 13.011.113.0
2017-Jul-18 18:05N 59°37' E 004°40'220.6
2017-Jul-18 18:00N 59°35' E 004°42'1019.4
2017-Jul-18 17:30N 59°27' E 004°51'918.6
2017-Jul-18 17:01N 59°19' E 004°60'1018.6
2017-Jul-18 16:30N 59°09' E 005°03'918.9
2017-Jul-18 16:01N 59°07' E 005°20'816.5
2017-Jul-18 15:31N 59°03' E 005°35'612.0
2017-Jul-18 15:00N 58°59' E 005°43'1 0.5
2017-Jul-18 14:00N 58°58' E 005°44'0 0.0
2017-Jul-18 13:30N 58°58' E 005°44'0 0.0
2017-Jul-18 13:00N 58°58' E 005°44'0 0.0
2017-Jul-18 12:30N 58°58' E 005°44'0 0.0
2017-Jul-18 12:00N 58°58' E 005°44'0 0.0
2017-Jul-18 11:27N 58°58' E 005°44'0 0.0
2017-Jul-18 11:00N 58°58' E 005°44'0 0.0
2017-Jul-18 10:27N 58°58' E 005°44'0 0.0
2017-Jul-18 10:00N 58°58' E 005°44'0 0.0
2017-Jul-18 09:30N 58°58' E 005°44'0 0.0
2017-Jul-18 09:00N 58°58' E 005°44'0 0.0
2017-Jul-18 08:30N 58°58' E 005°44'0 0.0
2017-Jul-18 08:00N 58°58' E 005°44'0 0.0
2017-Jul-18 07:30N 58°58' E 005°44'0 0.0
2017-Jul-18 07:00N 58°58' E 005°44'0 0.0
2017-Jul-18 06:30N 58°58' E 005°44'0 0.0
2017-Jul-18 06:01N 58°58' E 005°44'1 1.3
2017-Jul-18 05:31N 58°59' E 005°43'510.7
2017-Jul-18 05:01N 59°03' E 005°35'510.6
2017-Jul-18 04:30N 58°58' E 005°33'713.8
2017-Jul-18 04:01N 58°51' E 005°30'713.2
2017-Jul-18 03:31N 58°46' E 005°21'714.8
2017-Jul-18 03:01N 58°40' E 005°13'816.4
2017-Jul-18 02:31N 58°33' E 005°06'816.3
2017-Jul-18 02:01N 58°25' E 005°01'8127.0
2017-Jul-17 23:00N 57°06' E 004°24'14014.0 270 / 271011.410.8 14.913.816.0
2017-Jul-17 13:00N 54°48' E 003°42'5023.1 280 / 251021.810.8 15.815.616.0
2017-Jul-17 10:49N 53°58' E 003°50'619.4
2017-Jul-17 10:30N 53°56' E 003°41'1119.6
2017-Jul-17 09:58N 53°51' E 003°25'1120.8
2017-Jul-17 09:26N 53°42' E 003°13'1020.7
2017-Jul-17 08:58N 53°34' E 003°04'1020.9
2017-Jul-17 08:30N 53°26' E 002°57'1121.2
2017-Jul-17 08:00N 53°16' E 002°49'1121.3
2017-Jul-17 07:30N 53°06' E 002°42'1121.1
2017-Jul-17 07:01N 52°56' E 002°40'1121.2
2017-Jul-17 06:31N 52°45' E 002°40'1121.0
2017-Jul-17 06:01N 52°35' E 002°40'1020.8
2017-Jul-17 05:31N 52°24' E 002°38'1020.3
2017-Jul-17 05:00N 52°14' E 002°37'1019.9
2017-Jul-17 04:31N 52°04' E 002°40'1019.9
2017-Jul-17 04:00N 51°54' E 002°38'919.5
2017-Jul-17 03:30N 51°45' E 002°35'1019.5
2017-Jul-17 03:00N 51°38' E 002°25'1019.2
2017-Jul-17 02:31N 51°30' E 002°15'918.0
2017-Jul-17 02:01N 51°22' E 002°08'917.8
2017-Jul-17 01:31N 51°14' E 002°04'918.6
2017-Jul-17 01:01N 51°09' E 001°51'918.3
2017-Jul-17 00:31N 51°04' E 001°40'918.3
2017-Jul-17 00:01N 50°58' E 001°28'917.9
2017-Jul-16 23:31N 50°50' E 001°24'1118.4
2017-Jul-16 22:56N 50°39' E 001°20'819.4
2017-Jul-16 22:30N 50°34' E 001°10'3019.0
2017-Jul-16 20:57N 50°21' E 000°28'819.3
2017-Jul-16 20:31N 50°19' E 000°15'1019.2
2017-Jul-16 20:01N 50°16' E 000°00'1019.5
2017-Jul-16 19:30N 50°21' W 000°13'1019.6
2017-Jul-16 19:00N 50°27' W 000°26'1019.6
2017-Jul-16 18:31N 50°31' W 000°39'918.8
2017-Jul-16 18:01N 50°37' W 000°51'816.8
2017-Jul-16 17:31N 50°43' W 001°00'612.7
2017-Jul-16 17:01N 50°46' W 001°09'612.4
2017-Jul-16 16:30N 50°48' W 001°19'4 8.9
2017-Jul-16 16:00N 50°52' W 001°21'2 4.0
2017-Jul-16 15:29N 50°53' W 001°24'0 0.0
2017-Jul-16 14:59N 50°53' W 001°24'0 0.0
2017-Jul-16 14:29N 50°53' W 001°24'0 0.0
2017-Jul-16 13:59N 50°53' W 001°24'0 0.0
2017-Jul-16 13:29N 50°53' W 001°24'0 0.0
2017-Jul-16 12:59N 50°53' W 001°24'0 0.0
2017-Jul-16 12:29N 50°53' W 001°24'0 0.0
2017-Jul-16 11:56N 50°53' W 001°24'0 0.0
2017-Jul-16 11:29N 50°53' W 001°24'0 0.0
2017-Jul-16 10:59N 50°53' W 001°24'0 0.0
2017-Jul-16 10:29N 50°53' W 001°24'0 0.0
2017-Jul-16 09:59N 50°53' W 001°24'0 0.0
2017-Jul-16 09:29N 50°53' W 001°24'0 0.0
2017-Jul-16 08:59N 50°53' W 001°24'0 0.0
2017-Jul-16 08:29N 50°53' W 001°24'0 0.0
2017-Jul-16 07:59N 50°53' W 001°24'0 0.0
2017-Jul-16 07:29N 50°53' W 001°24'0 0.0
2017-Jul-16 06:59N 50°53' W 001°24'0 0.0
2017-Jul-16 06:29N 50°53' W 001°24'0 0.0
2017-Jul-16 06:00N 50°53' W 001°24'0 0.7
2017-Jul-16 05:30N 50°53' W 001°23'4 8.5
2017-Jul-16 05:00N 50°50' W 001°19'4 8.2
2017-Jul-16 04:30N 50°46' W 001°15'816.0
2017-Jul-16 04:00N 50°44' W 001°03'714.0
2017-Jul-16 03:31N 50°39' W 000°55'612.6
2017-Jul-16 03:00N 50°36' W 000°46'1020.3
2017-Jul-16 02:30N 50°35' W 000°30'1019.5
2017-Jul-16 02:00N 50°33' W 000°15'918.9
2017-Jul-16 01:30N 50°32' W 000°01'816.1
2017-Jul-16 01:00N 50°33' E 000°12'715.1
2017-Jul-16 00:30N 50°36' E 000°23'815.3
2017-Jul-16 00:00N 50°39' E 000°34'816.4
2017-Jul-15 23:30N 50°44' E 000°45'917.2
2017-Jul-15 23:00N 50°48' E 000°56'1017.8
2017-Jul-15 22:27N 50°54' E 001°09'818.3
2017-Jul-15 22:00N 50°60' E 001°18'918.3
2017-Jul-15 21:30N 51°05' E 001°30'917.4
2017-Jul-15 21:01N 51°11' E 001°40'715.0
2017-Jul-15 20:30N 51°17' E 001°47'815.8
2017-Jul-15 20:01N 51°24' E 001°53'815.4
2017-Jul-15 19:30N 51°30' E 002°00'815.8
2017-Jul-15 19:00N 51°35' E 002°11'815.4
2017-Jul-15 18:30N 51°40' E 002°19'714.7
2017-Jul-15 18:00N 51°47' E 002°26'1114.9
2017-Jul-15 17:15N 51°57' E 002°34'1415.6
2017-Jul-15 16:20N 52°11' E 002°37'716.1
2017-Jul-15 15:54N 52°17' E 002°40'716.3
2017-Jul-15 15:28N 52°23' E 002°48'2517.0
2017-Jul-15 13:59N 52°45' E 003°07'1217.8
2017-Jul-15 13:17N 52°56' E 003°16'518.1
2017-Jul-15 13:00N 53°01' E 003°19'1111.2
2017-Jul-15 12:00N 53°12' E 003°24'1434.4 200 / 171020.810.8 16.416.216.0
2017-Jul-15 11:35N 53°25' E 003°31'417.6
2017-Jul-15 11:21N 53°29' E 003°33'817.3
2017-Jul-15 10:55N 53°37' E 003°37'1416.2
2017-Jul-15 10:01N 53°48' E 003°52'20748.2
2017-Jul-15 10:00N 54°00' E 004°18'19547.1 220 / 121020.510.8 15.512.816.0
2017-Jul-15 09:57N 53°49' E 003°53'1216.7
2017-Jul-15 09:14N 53°56' E 004°09'416.9
2017-Jul-15 09:00N 53°59' E 004°15'917.0
2017-Jul-15 08:30N 54°04' E 004°26'21722.8
2017-Jul-14 23:00N 57°06' E 007°54'3110.5 180 / 91010.810.8 14.511.714.0
2017-Jul-14 20:01N 57°25' E 008°40'519.7
2017-Jul-14 19:48N 57°27' E 008°48'719.7
2017-Jul-14 19:27N 57°30' E 008°58'919.8
2017-Jul-14 19:00N 57°35' E 009°12'1119.4
2017-Jul-14 18:26N 57°40' E 009°31'920.2
2017-Jul-14 18:01N 57°42' E 009°46'1019.6
2017-Jul-14 17:30N 57°45' E 010°04'1019.6
2017-Jul-14 17:01N 57°49' E 010°21'918.3
2017-Jul-14 16:31N 57°51' E 010°38'815.2
2017-Jul-14 15:59N 57°44' E 010°44'4 7.9
2017-Jul-14 15:26N 57°43' E 010°36'0 0.7
2017-Jul-14 14:56N 57°43' E 010°35'0 0.0
2017-Jul-14 14:29N 57°43' E 010°35'0 0.0
2017-Jul-14 13:44N 57°43' E 010°35'0 0.0
2017-Jul-14 13:23N 57°43' E 010°35'0 0.0
2017-Jul-14 12:50N 57°43' E 010°35'0 0.0
2017-Jul-14 12:23N 57°43' E 010°35'0 0.0
2017-Jul-14 11:11N 57°43' E 010°35'0 0.0
2017-Jul-14 10:59N 57°43' E 010°35'0 0.0
2017-Jul-14 10:23N 57°43' E 010°35'0 0.0
2017-Jul-14 09:41N 57°43' E 010°35'0 0.0
2017-Jul-14 08:59N 57°43' E 010°35'0 0.0
2017-Jul-14 08:17N 57°43' E 010°35'0 0.0
2017-Jul-14 07:19N 57°43' E 010°35'0 0.6
2017-Jul-14 06:57N 57°43' E 010°36'3 6.3
2017-Jul-14 06:24N 57°43' E 010°42'512.7
2017-Jul-14 06:00N 57°42' E 010°51'816.1
2017-Jul-14 05:30N 57°39' E 011°05'816.8
2017-Jul-14 05:00N 57°33' E 011°17'816.5
2017-Jul-14 04:30N 57°27' E 011°27'817.0
2017-Jul-14 04:00N 57°19' E 011°32'816.9
2017-Jul-14 03:30N 57°11' E 011°38'1017.0
2017-Jul-14 02:54N 57°01' E 011°45'1716.9
2017-Jul-14 01:53N 56°45' E 011°55'2714.5
2017-Jul-14 00:00N 56°18' E 012°00'1047.8 270 / 341014.310.8 13.913.716.0
2017-Jul-13 23:47N 56°14' E 012°16'516.0
2017-Jul-13 23:30N 56°11' E 012°23'816.0
2017-Jul-13 23:00N 56°06' E 012°34'815.4
2017-Jul-13 22:31N 55°60' E 012°41'815.2
2017-Jul-13 22:01N 55°53' E 012°45'713.7
2017-Jul-13 21:30N 55°46' E 012°42'4 7.4
2017-Jul-13 21:00N 55°43' E 012°38'0 0.5
2017-Jul-13 20:28N 55°43' E 012°37'0 0.0
2017-Jul-13 19:58N 55°43' E 012°37'0 0.0
2017-Jul-13 19:28N 55°43' E 012°37'0 0.0
2017-Jul-13 18:58N 55°43' E 012°37'0 0.0
2017-Jul-13 18:28N 55°43' E 012°37'0 0.0
2017-Jul-13 17:58N 55°43' E 012°37'0 0.0
2017-Jul-13 17:28N 55°43' E 012°37'0 0.0
2017-Jul-13 16:58N 55°43' E 012°37'0 0.0
2017-Jul-13 16:28N 55°43' E 012°37'0 0.0
2017-Jul-13 15:58N 55°43' E 012°37'0 0.0
2017-Jul-13 15:28N 55°43' E 012°37'0 0.0
2017-Jul-13 14:58N 55°43' E 012°37'0 0.0
2017-Jul-13 14:28N 55°43' E 012°37'0 0.0
2017-Jul-13 13:58N 55°43' E 012°37'0 0.0
2017-Jul-13 13:28N 55°43' E 012°37'0 0.0
2017-Jul-13 12:58N 55°43' E 012°37'0 0.0
2017-Jul-13 12:28N 55°43' E 012°37'0 0.0
2017-Jul-13 11:58N 55°43' E 012°37'0 0.0
2017-Jul-13 11:28N 55°43' E 012°37'0 0.0
2017-Jul-13 10:58N 55°43' E 012°37'0 0.0
2017-Jul-13 10:28N 55°43' E 012°37'0 0.0
2017-Jul-13 09:58N 55°43' E 012°37'0 0.0
2017-Jul-13 09:28N 55°43' E 012°37'0 0.0
2017-Jul-13 08:58N 55°43' E 012°37'0 0.0
2017-Jul-13 08:28N 55°43' E 012°37'0 0.0
2017-Jul-13 07:58N 55°43' E 012°37'0 0.0
2017-Jul-13 07:28N 55°43' E 012°37'0 0.0
2017-Jul-13 06:58N 55°43' E 012°37'0 0.2
2017-Jul-13 06:31N 55°43' E 012°37'3 6.9
2017-Jul-13 06:00N 55°45' E 012°41'612.5
2017-Jul-13 05:30N 55°52' E 012°40'815.5
2017-Jul-13 05:00N 55°59' E 012°41'918.3
2017-Jul-13 04:30N 56°07' E 012°31'1020.9
2017-Jul-13 04:00N 56°12' E 012°15'1120.4
2017-Jul-13 03:27N 56°09' E 011°54'6114.7
2017-Jul-12 23:18N 55°15' E 011°05'516.2
2017-Jul-12 23:00N 55°11' E 011°05'1019.1
2017-Jul-12 22:30N 55°01' E 011°02'918.0
2017-Jul-12 22:00N 54°54' E 010°54'917.9
2017-Jul-12 21:30N 54°45' E 010°53'816.7
2017-Jul-12 21:00N 54°39' E 011°03'918.2
2017-Jul-12 20:30N 54°34' E 011°17'917.8
2017-Jul-12 20:00N 54°31' E 011°31'1020.0
2017-Jul-12 19:30N 54°26' E 011°47'1517.4
2017-Jul-12 18:37N 54°31' E 012°12'220.2
2017-Jul-12 18:30N 54°33' E 012°13'1119.0
2017-Jul-12 17:55N 54°42' E 012°26'920.2
2017-Jul-12 17:28N 54°46' E 012°40'1020.1
2017-Jul-12 16:57N 54°51' E 012°56'1120.7
2017-Jul-12 16:26N 54°54' E 013°13'2120.8
2017-Jul-12 15:24N 55°02' E 013°48'820.7
2017-Jul-12 15:00N 55°04' E 014°02'2020.3
2017-Jul-12 14:00N 55°20' E 014°24'1020.4
2017-Jul-12 13:30N 55°28' E 014°36'1020.2
2017-Jul-12 13:00N 55°32' E 014°52'1020.6
2017-Jul-12 12:30N 55°38' E 015°07'1020.7
2017-Jul-12 12:00N 55°43' E 015°23'211322.9
2017-Jul-12 12:00N 55°30' E 014°54'   210 / 181006.010.8 15.014.815.0
Track history (hours):
 
Tides and Currents Weather Stations Pressure Air Temp Water Temp Dewpoint Dewpoint Depression Visibility Wind Speed Wind Dir Waves Ship Positions

Aurora (Bermuda)

Last reported at 2017-Jul-22 11:52 UTC. Time now 2017-Jul-22 12:44 UTC.
Position N 54°14' E 003°19'.

Length 271 m; draft 8.3 m.

Type: Ship. MMSI: 310555970.

Date/timePositionNaut miles runAvg speedWind from/ knotsBaromVisibWave heightAir tempDewpointWater temp
2017-Jul-22 11:52N 54°14' E 003°19'3520.5
2017-Jul-22 10:10N 54°48' E 003°25'34820.3
2017-Jul-21 17:00N 60°35' E 004°22'1020.3
2017-Jul-21 16:30N 60°43' E 004°35'712.9
2017-Jul-21 15:59N 60°42' E 004°48'918.2
2017-Jul-21 15:30N 60°34' E 004°55'1019.4
2017-Jul-21 15:00N 60°25' E 005°04'511.1
2017-Jul-21 14:30N 60°24' E 005°14'2 4.1
2017-Jul-21 13:57N 60°24' E 005°19'0 0.0
2017-Jul-21 13:27N 60°24' E 005°19'0 0.0
2017-Jul-21 12:57N 60°24' E 005°19'0 0.0
2017-Jul-21 12:27N 60°24' E 005°19'0 0.0
2017-Jul-21 11:57N 60°24' E 005°19'0 0.0
2017-Jul-21 11:27N 60°24' E 005°19'0 0.0
2017-Jul-21 10:57N 60°24' E 005°19'0 0.0
2017-Jul-21 10:27N 60°24' E 005°19'0 0.0
2017-Jul-21 09:57N 60°24' E 005°19'0 0.0
2017-Jul-21 09:27N 60°24' E 005°19'0 0.0
2017-Jul-21 08:57N 60°24' E 005°19'0 0.0
2017-Jul-21 08:27N 60°24' E 005°19'0 0.0
2017-Jul-21 07:57N 60°24' E 005°19'0 0.0
2017-Jul-21 07:27N 60°24' E 005°19'0 0.0
2017-Jul-21 06:57N 60°24' E 005°19'0 0.0
2017-Jul-21 06:27N 60°24' E 005°19'0 0.0
2017-Jul-21 05:57N 60°24' E 005°19'0 0.0
2017-Jul-21 05:30N 60°24' E 005°19'2 4.4
2017-Jul-21 05:00N 60°24' E 005°15'4 8.2
2017-Jul-21 04:30N 60°24' E 005°06'714.8
2017-Jul-21 04:00N 60°31' E 004°58'917.1
2017-Jul-21 03:30N 60°38' E 004°51'816.5
2017-Jul-21 03:00N 60°45' E 004°40'816.0
2017-Jul-21 02:30N 60°49' E 004°27'816.3
2017-Jul-21 02:00N 60°57' E 004°21'816.0
2017-Jul-21 01:30N 61°05' E 004°18'816.2
2017-Jul-21 01:00N 61°13' E 004°18'816.4
2017-Jul-21 00:30N 61°21' E 004°19'2916.0
2017-Jul-20 22:41N 61°50' E 004°24'317.1
2017-Jul-20 22:30N 61°53' E 004°27'1018.9
2017-Jul-20 22:00N 62°02' E 004°37'1019.9
2017-Jul-20 21:30N 62°10' E 004°46'1020.0
2017-Jul-20 21:00N 62°18' E 004°58'1020.1
2017-Jul-20 20:30N 62°27' E 005°10'1019.8
2017-Jul-20 20:00N 62°34' E 005°24'1019.8
2017-Jul-20 19:30N 62°40' E 005°41'1019.9
2017-Jul-20 19:00N 62°47' E 005°59'1019.7
2017-Jul-20 18:30N 62°53' E 006°16'1019.5
2017-Jul-20 18:00N 62°57' E 006°35'817.3
2017-Jul-20 17:30N 62°54' E 006°52'713.5
2017-Jul-20 17:00N 62°48' E 006°57'713.4
2017-Jul-20 16:30N 62°42' E 007°03'916.8
2017-Jul-20 16:00N 62°38' E 007°20'915.7
2017-Jul-20 15:27N 62°33' E 007°36'3 6.4
2017-Jul-20 15:00N 62°34' E 007°42'0 0.0
2017-Jul-20 05:47N 62°34' E 007°42'0 1.1
2017-Jul-20 05:28N 62°34' E 007°41'6 7.7
2017-Jul-20 04:39N 62°34' E 007°27'211.9
2017-Jul-20 04:27N 62°36' E 007°24'715.0
2017-Jul-20 04:00N 62°39' E 007°12'715.0
2017-Jul-20 03:30N 62°43' E 006°58'714.9
2017-Jul-20 03:00N 62°51' E 006°59'612.9
2017-Jul-20 02:31N 62°55' E 006°49'715.0
2017-Jul-20 02:01N 62°57' E 006°33'815.2
2017-Jul-20 01:30N 62°55' E 006°17'815.2
2017-Jul-20 01:00N 62°53' E 006°01'815.3
2017-Jul-20 00:31N 62°51' E 005°45'5314.4
2017-Jul-19 20:48N 62°11' E 004°28'414.7
2017-Jul-19 20:29N 62°07' E 004°34'815.5
2017-Jul-19 20:00N 62°02' E 004°46'816.8
2017-Jul-19 19:30N 61°56' E 004°59'815.9
2017-Jul-19 19:00N 61°54' E 005°15'816.2
2017-Jul-19 18:29N 61°55' E 005°33'816.1
2017-Jul-19 18:00N 61°51' E 005°47'1 0.1
2017-Jul-19 04:10N 61°51' E 005°50'214.9
2017-Jul-19 04:00N 61°52' E 005°45'815.9
2017-Jul-19 03:30N 61°55' E 005°29'816.0
2017-Jul-19 03:00N 61°54' E 005°13'713.9
2017-Jul-19 02:30N 61°57' E 004°59'714.6
2017-Jul-19 02:00N 61°57' E 004°43'816.4
2017-Jul-19 01:30N 61°51' E 004°32'816.8
2017-Jul-19 01:00N 61°43' E 004°25'6230.9
2017-Jul-18 23:00N 60°42' E 004°06'6713.7 320 / 91020.310.8 13.011.113.0
2017-Jul-18 18:05N 59°37' E 004°40'220.6
2017-Jul-18 18:00N 59°35' E 004°42'1019.4
2017-Jul-18 17:30N 59°27' E 004°51'918.6
2017-Jul-18 17:01N 59°19' E 004°60'1018.6
2017-Jul-18 16:30N 59°09' E 005°03'918.9
2017-Jul-18 16:01N 59°07' E 005°20'816.5
2017-Jul-18 15:31N 59°03' E 005°35'612.0
2017-Jul-18 15:00N 58°59' E 005°43'1 0.5
2017-Jul-18 14:00N 58°58' E 005°44'0 0.0
2017-Jul-18 13:30N 58°58' E 005°44'0 0.0
2017-Jul-18 13:00N 58°58' E 005°44'0 0.0
2017-Jul-18 12:30N 58°58' E 005°44'0 0.0
2017-Jul-18 12:00N 58°58' E 005°44'0 0.0
2017-Jul-18 11:27N 58°58' E 005°44'0 0.0
2017-Jul-18 11:00N 58°58' E 005°44'0 0.0
2017-Jul-18 10:27N 58°58' E 005°44'0 0.0
2017-Jul-18 10:00N 58°58' E 005°44'0 0.0
2017-Jul-18 09:30N 58°58' E 005°44'0 0.0
2017-Jul-18 09:00N 58°58' E 005°44'0 0.0
2017-Jul-18 08:30N 58°58' E 005°44'0 0.0
2017-Jul-18 08:00N 58°58' E 005°44'0 0.0
2017-Jul-18 07:30N 58°58' E 005°44'0 0.0
2017-Jul-18 07:00N 58°58' E 005°44'0 0.0
2017-Jul-18 06:30N 58°58' E 005°44'0 0.0
2017-Jul-18 06:01N 58°58' E 005°44'1 1.3
2017-Jul-18 05:31N 58°59' E 005°43'510.7
2017-Jul-18 05:01N 59°03' E 005°35'510.6
2017-Jul-18 04:30N 58°58' E 005°33'713.8
2017-Jul-18 04:01N 58°51' E 005°30'713.2
2017-Jul-18 03:31N 58°46' E 005°21'714.8
2017-Jul-18 03:01N 58°40' E 005°13'816.4
2017-Jul-18 02:31N 58°33' E 005°06'816.3
2017-Jul-18 02:01N 58°25' E 005°01'8127.0
2017-Jul-17 23:00N 57°06' E 004°24'14014.0 270 / 271011.410.8 14.913.816.0
2017-Jul-17 13:00N 54°48' E 003°42'5023.1 280 / 251021.810.8 15.815.616.0
2017-Jul-17 10:49N 53°58' E 003°50'619.4
2017-Jul-17 10:30N 53°56' E 003°41'1119.6
2017-Jul-17 09:58N 53°51' E 003°25'1120.8
2017-Jul-17 09:26N 53°42' E 003°13'1020.7
2017-Jul-17 08:58N 53°34' E 003°04'1020.9
2017-Jul-17 08:30N 53°26' E 002°57'1121.2
2017-Jul-17 08:00N 53°16' E 002°49'1121.3
2017-Jul-17 07:30N 53°06' E 002°42'1121.1
2017-Jul-17 07:01N 52°56' E 002°40'1121.2
2017-Jul-17 06:31N 52°45' E 002°40'1121.0
2017-Jul-17 06:01N 52°35' E 002°40'1020.8
2017-Jul-17 05:31N 52°24' E 002°38'1020.3
2017-Jul-17 05:00N 52°14' E 002°37'1019.9
2017-Jul-17 04:31N 52°04' E 002°40'1019.9
2017-Jul-17 04:00N 51°54' E 002°38'919.5
2017-Jul-17 03:30N 51°45' E 002°35'1019.5
2017-Jul-17 03:00N 51°38' E 002°25'1019.2
2017-Jul-17 02:31N 51°30' E 002°15'918.0
2017-Jul-17 02:01N 51°22' E 002°08'917.8
2017-Jul-17 01:31N 51°14' E 002°04'918.6
2017-Jul-17 01:01N 51°09' E 001°51'918.3
2017-Jul-17 00:31N 51°04' E 001°40'918.3
2017-Jul-17 00:01N 50°58' E 001°28'917.9
2017-Jul-16 23:31N 50°50' E 001°24'1118.4
2017-Jul-16 22:56N 50°39' E 001°20'819.4
2017-Jul-16 22:30N 50°34' E 001°10'3019.0
2017-Jul-16 20:57N 50°21' E 000°28'819.3
2017-Jul-16 20:31N 50°19' E 000°15'1019.2
2017-Jul-16 20:01N 50°16' E 000°00'1019.5
2017-Jul-16 19:30N 50°21' W 000°13'1019.6
2017-Jul-16 19:00N 50°27' W 000°26'1019.6
2017-Jul-16 18:31N 50°31' W 000°39'918.8
2017-Jul-16 18:01N 50°37' W 000°51'816.8
2017-Jul-16 17:31N 50°43' W 001°00'612.7
2017-Jul-16 17:01N 50°46' W 001°09'612.4
2017-Jul-16 16:30N 50°48' W 001°19'4 8.9
2017-Jul-16 16:00N 50°52' W 001°21'2 4.0
2017-Jul-16 15:29N 50°53' W 001°24'0 0.0
2017-Jul-16 14:59N 50°53' W 001°24'0 0.0
2017-Jul-16 14:29N 50°53' W 001°24'0 0.0
2017-Jul-16 13:59N 50°53' W 001°24'0 0.0
2017-Jul-16 13:29N 50°53' W 001°24'0 0.0
2017-Jul-16 12:59N 50°53' W 001°24'0 0.0
2017-Jul-16 12:29N 50°53' W 001°24'0 0.0
2017-Jul-16 11:56N 50°53' W 001°24'0 0.0
2017-Jul-16 11:29N 50°53' W 001°24'0 0.0
2017-Jul-16 10:59N 50°53' W 001°24'0 0.0
2017-Jul-16 10:29N 50°53' W 001°24'0 0.0
2017-Jul-16 09:59N 50°53' W 001°24'0 0.0
2017-Jul-16 09:29N 50°53' W 001°24'0 0.0
2017-Jul-16 08:59N 50°53' W 001°24'0 0.0
2017-Jul-16 08:29N 50°53' W 001°24'0 0.0
2017-Jul-16 07:59N 50°53' W 001°24'0 0.0
2017-Jul-16 07:29N 50°53' W 001°24'0 0.0
2017-Jul-16 06:59N 50°53' W 001°24'0 0.0
2017-Jul-16 06:29N 50°53' W 001°24'0 0.0
2017-Jul-16 06:00N 50°53' W 001°24'0 0.7
2017-Jul-16 05:30N 50°53' W 001°23'4 8.5
2017-Jul-16 05:00N 50°50' W 001°19'4 8.2
2017-Jul-16 04:30N 50°46' W 001°15'816.0
2017-Jul-16 04:00N 50°44' W 001°03'714.0
2017-Jul-16 03:31N 50°39' W 000°55'612.6
2017-Jul-16 03:00N 50°36' W 000°46'1020.3
2017-Jul-16 02:30N 50°35' W 000°30'1019.5
2017-Jul-16 02:00N 50°33' W 000°15'918.9
2017-Jul-16 01:30N 50°32' W 000°01'816.1
2017-Jul-16 01:00N 50°33' E 000°12'715.1
2017-Jul-16 00:30N 50°36' E 000°23'815.3
2017-Jul-16 00:00N 50°39' E 000°34'816.4
2017-Jul-15 23:30N 50°44' E 000°45'917.2
2017-Jul-15 23:00N 50°48' E 000°56'1017.8
2017-Jul-15 22:27N 50°54' E 001°09'818.3
2017-Jul-15 22:00N 50°60' E 001°18'918.3
2017-Jul-15 21:30N 51°05' E 001°30'917.4
2017-Jul-15 21:01N 51°11' E 001°40'715.0
2017-Jul-15 20:30N 51°17' E 001°47'815.8
2017-Jul-15 20:01N 51°24' E 001°53'815.4
2017-Jul-15 19:30N 51°30' E 002°00'815.8
2017-Jul-15 19:00N 51°35' E 002°11'815.4
2017-Jul-15 18:30N 51°40' E 002°19'714.7
2017-Jul-15 18:00N 51°47' E 002°26'1114.9
2017-Jul-15 17:15N 51°57' E 002°34'1415.6
2017-Jul-15 16:20N 52°11' E 002°37'716.1
2017-Jul-15 15:54N 52°17' E 002°40'716.3
2017-Jul-15 15:28N 52°23' E 002°48'2517.0
2017-Jul-15 13:59N 52°45' E 003°07'1217.8
2017-Jul-15 13:17N 52°56' E 003°16'518.1
2017-Jul-15 13:00N 53°01' E 003°19'1111.2
2017-Jul-15 12:00N 53°12' E 003°24'1434.4 200 / 171020.810.8 16.416.216.0
2017-Jul-15 11:35N 53°25' E 003°31'417.6
2017-Jul-15 11:21N 53°29' E 003°33'817.3
2017-Jul-15 10:55N 53°37' E 003°37'1416.2
2017-Jul-15 10:01N 53°48' E 003°52'20748.2
2017-Jul-15 10:00N 54°00' E 004°18'19547.1 220 / 121020.510.8 15.512.816.0
2017-Jul-15 09:57N 53°49' E 003°53'1216.7
2017-Jul-15 09:14N 53°56' E 004°09'416.9
2017-Jul-15 09:00N 53°59' E 004°15'917.0
2017-Jul-15 08:30N 54°04' E 004°26'21722.8
2017-Jul-14 23:00N 57°06' E 007°54'3110.5 180 / 91010.810.8 14.511.714.0
2017-Jul-14 20:01N 57°25' E 008°40'519.7
2017-Jul-14 19:48N 57°27' E 008°48'719.7
2017-Jul-14 19:27N 57°30' E 008°58'919.8
2017-Jul-14 19:00N 57°35' E 009°12'1119.4
2017-Jul-14 18:26N 57°40' E 009°31'920.2
2017-Jul-14 18:01N 57°42' E 009°46'1019.6
2017-Jul-14 17:30N 57°45' E 010°04'1019.6
2017-Jul-14 17:01N 57°49' E 010°21'918.3
2017-Jul-14 16:31N 57°51' E 010°38'815.2
2017-Jul-14 15:59N 57°44' E 010°44'4 7.9
2017-Jul-14 15:26N 57°43' E 010°36'0 0.7
2017-Jul-14 14:56N 57°43' E 010°35'0 0.0
2017-Jul-14 14:29N 57°43' E 010°35'0 0.0
2017-Jul-14 13:44N 57°43' E 010°35'0 0.0
2017-Jul-14 13:23N 57°43' E 010°35'0 0.0
2017-Jul-14 12:50N 57°43' E 010°35'0 0.0
2017-Jul-14 12:23N 57°43' E 010°35'0 0.0
2017-Jul-14 11:11N 57°43' E 010°35'0 0.0
2017-Jul-14 10:59N 57°43' E 010°35'0 0.0
2017-Jul-14 10:23N 57°43' E 010°35'0 0.0
2017-Jul-14 09:41N 57°43' E 010°35'0 0.0
2017-Jul-14 08:59N 57°43' E 010°35'0 0.0
2017-Jul-14 08:17N 57°43' E 010°35'0 0.0
2017-Jul-14 07:19N 57°43' E 010°35'0 0.6
2017-Jul-14 06:57N 57°43' E 010°36'3 6.3
2017-Jul-14 06:24N 57°43' E 010°42'512.7
2017-Jul-14 06:00N 57°42' E 010°51'816.1
2017-Jul-14 05:30N 57°39' E 011°05'816.8
2017-Jul-14 05:00N 57°33' E 011°17'816.5
2017-Jul-14 04:30N 57°27' E 011°27'817.0
2017-Jul-14 04:00N 57°19' E 011°32'816.9
2017-Jul-14 03:30N 57°11' E 011°38'1017.0
2017-Jul-14 02:54N 57°01' E 011°45'1716.9
2017-Jul-14 01:53N 56°45' E 011°55'2714.5
2017-Jul-14 00:00N 56°18' E 012°00'1047.8 270 / 341014.310.8 13.913.716.0
2017-Jul-13 23:47N 56°14' E 012°16'516.0
2017-Jul-13 23:30N 56°11' E 012°23'816.0
2017-Jul-13 23:00N 56°06' E 012°34'815.4
2017-Jul-13 22:31N 55°60' E 012°41'815.2
2017-Jul-13 22:01N 55°53' E 012°45'713.7
2017-Jul-13 21:30N 55°46' E 012°42'4 7.4
2017-Jul-13 21:00N 55°43' E 012°38'0 0.5
2017-Jul-13 20:28N 55°43' E 012°37'0 0.0
2017-Jul-13 19:58N 55°43' E 012°37'0 0.0
2017-Jul-13 19:28N 55°43' E 012°37'0 0.0
2017-Jul-13 18:58N 55°43' E 012°37'0 0.0
2017-Jul-13 18:28N 55°43' E 012°37'0 0.0
2017-Jul-13 17:58N 55°43' E 012°37'0 0.0
2017-Jul-13 17:28N 55°43' E 012°37'0 0.0
2017-Jul-13 16:58N 55°43' E 012°37'0 0.0
2017-Jul-13 16:28N 55°43' E 012°37'0 0.0
2017-Jul-13 15:58N 55°43' E 012°37'0 0.0
2017-Jul-13 15:28N 55°43' E 012°37'0 0.0
2017-Jul-13 14:58N 55°43' E 012°37'0 0.0
2017-Jul-13 14:28N 55°43' E 012°37'0 0.0
2017-Jul-13 13:58N 55°43' E 012°37'0 0.0
2017-Jul-13 13:28N 55°43' E 012°37'0 0.0
2017-Jul-13 12:58N 55°43' E 012°37'0 0.0
2017-Jul-13 12:28N 55°43' E 012°37'0 0.0
2017-Jul-13 11:58N 55°43' E 012°37'0 0.0
2017-Jul-13 11:28N 55°43' E 012°37'0 0.0
2017-Jul-13 10:58N 55°43' E 012°37'0 0.0
2017-Jul-13 10:28N 55°43' E 012°37'0 0.0
2017-Jul-13 09:58N 55°43' E 012°37'0 0.0
2017-Jul-13 09:28N 55°43' E 012°37'0 0.0
2017-Jul-13 08:58N 55°43' E 012°37'0 0.0
2017-Jul-13 08:28N 55°43' E 012°37'0 0.0
2017-Jul-13 07:58N 55°43' E 012°37'0 0.0
2017-Jul-13 07:28N 55°43' E 012°37'0 0.0
2017-Jul-13 06:58N 55°43' E 012°37'0 0.2
2017-Jul-13 06:31N 55°43' E 012°37'3 6.9
2017-Jul-13 06:00N 55°45' E 012°41'612.5
2017-Jul-13 05:30N 55°52' E 012°40'815.5
2017-Jul-13 05:00N 55°59' E 012°41'918.3
2017-Jul-13 04:30N 56°07' E 012°31'1020.9
2017-Jul-13 04:00N 56°12' E 012°15'1120.4
2017-Jul-13 03:27N 56°09' E 011°54'6114.7
2017-Jul-12 23:18N 55°15' E 011°05'516.2
2017-Jul-12 23:00N 55°11' E 011°05'1019.1
2017-Jul-12 22:30N 55°01' E 011°02'918.0
2017-Jul-12 22:00N 54°54' E 010°54'917.9
2017-Jul-12 21:30N 54°45' E 010°53'816.7
2017-Jul-12 21:00N 54°39' E 011°03'918.2
2017-Jul-12 20:30N 54°34' E 011°17'917.8
2017-Jul-12 20:00N 54°31' E 011°31'1020.0
2017-Jul-12 19:30N 54°26' E 011°47'1517.4
2017-Jul-12 18:37N 54°31' E 012°12'220.2
2017-Jul-12 18:30N 54°33' E 012°13'1119.0
2017-Jul-12 17:55N 54°42' E 012°26'920.2
2017-Jul-12 17:28N 54°46' E 012°40'1020.1
2017-Jul-12 16:57N 54°51' E 012°56'1120.7
2017-Jul-12 16:26N 54°54' E 013°13'2120.8
2017-Jul-12 15:24N 55°02' E 013°48'820.7
2017-Jul-12 15:00N 55°04' E 014°02'2020.3
2017-Jul-12 14:00N 55°20' E 014°24'1020.4
2017-Jul-12 13:30N 55°28' E 014°36'1020.2
2017-Jul-12 13:00N 55°32' E 014°52'1020.6
2017-Jul-12 12:30N 55°38' E 015°07'1020.7
2017-Jul-12 12:00N 55°43' E 015°23'211322.9
2017-Jul-12 12:00N 55°30' E 014°54'   210 / 181006.010.8 15.014.815.0

Dump ship's entire track history